createdAt,value
2019-02-06T00:00:05.467Z,31.20
2019-02-06T00:01:05.452Z,30.90
2019-02-06T00:02:05.451Z,28.70
2019-02-06T00:03:05.455Z,28.90
2019-02-06T00:04:05.419Z,30.80
2019-02-06T00:05:13.935Z,32.70
2019-02-06T00:06:06.396Z,32.40
2019-02-06T00:07:05.389Z,32.70
2019-02-06T00:08:05.378Z,33.30
2019-02-06T00:09:05.376Z,32.70
2019-02-06T00:10:05.385Z,33.80
2019-02-06T00:11:05.341Z,33.80
2019-02-06T00:12:05.339Z,33.80
2019-02-06T00:13:05.320Z,32.60
2019-02-06T00:14:05.347Z,32.00
2019-02-06T00:15:05.322Z,33.80
2019-02-06T00:16:05.289Z,33.70
2019-02-06T00:17:05.300Z,34.30
2019-02-06T00:18:05.287Z,32.70
2019-02-06T00:19:05.275Z,34.00
2019-02-06T00:20:05.253Z,32.00
2019-02-06T00:21:05.270Z,30.90
2019-02-06T00:22:05.231Z,33.50
2019-02-06T00:23:05.239Z,31.20
2019-02-06T00:24:05.207Z,32.50
2019-02-06T00:25:05.232Z,33.30
2019-02-06T00:26:05.185Z,34.00
2019-02-06T00:27:05.171Z,31.90
2019-02-06T00:28:05.194Z,31.00
2019-02-06T00:29:05.165Z,30.60
2019-02-06T00:30:05.138Z,33.40
2019-02-06T00:31:05.131Z,32.10
2019-02-06T00:32:05.117Z,30.00
2019-02-06T00:33:05.123Z,30.10
2019-02-06T00:34:05.090Z,30.00
2019-02-06T00:35:05.102Z,28.40
2019-02-06T00:36:05.075Z,32.20
2019-02-06T00:37:05.064Z,31.50
2019-02-06T00:38:05.620Z,32.00
2019-02-06T00:39:05.039Z,32.20
2019-02-06T00:40:05.032Z,30.70
2019-02-06T00:41:05.016Z,30.90
2019-02-06T00:42:05.014Z,32.00
2019-02-06T00:43:05.023Z,30.60
2019-02-06T00:44:04.985Z,29.60
2019-02-06T00:45:04.996Z,30.80
2019-02-06T00:46:04.961Z,29.60
2019-02-06T00:47:04.954Z,30.80
2019-02-06T00:48:04.951Z,29.10
2019-02-06T00:49:04.927Z,31.00
2019-02-06T00:50:04.939Z,29.70
2019-02-06T00:51:04.908Z,29.70
2019-02-06T00:52:04.899Z,27.10
2019-02-06T00:53:04.887Z,27.30
2019-02-06T00:54:04.882Z,30.40
2019-02-06T00:55:04.895Z,29.70
2019-02-06T00:56:04.857Z,28.60
2019-02-06T00:57:04.839Z,29.20
2019-02-06T00:58:04.830Z,30.30
2019-02-06T00:59:04.817Z,29.40
2019-02-06T01:00:04.833Z,28.40
2019-02-06T01:01:04.815Z,27.90
2019-02-06T01:02:04.787Z,29.20
2019-02-06T01:03:04.776Z,28.70
2019-02-06T01:04:04.765Z,26.60
2019-02-06T01:05:04.753Z,28.00
2019-02-06T01:06:04.782Z,26.70
2019-02-06T01:07:04.732Z,25.30
2019-02-06T01:08:04.723Z,25.60
2019-02-06T01:09:04.712Z,29.40
2019-02-06T01:10:04.701Z,28.30
2019-02-06T01:11:04.718Z,30.30
2019-02-06T01:12:04.683Z,29.70
2019-02-06T01:13:04.667Z,27.70
2019-02-06T01:14:04.657Z,26.20
2019-02-06T01:15:04.643Z,28.20
2019-02-06T01:16:04.659Z,32.20
2019-02-06T01:17:04.622Z,28.00
2019-02-06T01:18:04.617Z,30.00
2019-02-06T01:19:04.606Z,31.60
2019-02-06T01:20:04.614Z,31.10
2019-02-06T01:21:04.579Z,30.40
2019-02-06T01:22:04.572Z,31.70
2019-02-06T01:23:04.571Z,30.80
2019-02-06T01:24:04.545Z,31.00
2019-02-06T01:25:04.568Z,33.40
2019-02-06T01:26:04.526Z,33.90
2019-02-06T01:27:04.540Z,31.40
2019-02-06T01:28:04.504Z,30.90
2019-02-06T01:29:04.492Z,29.60
2019-02-06T01:30:04.483Z,31.10
2019-02-06T01:31:04.474Z,31.00
2019-02-06T01:32:04.485Z,33.60
2019-02-06T01:33:04.447Z,33.30
2019-02-06T01:34:04.439Z,30.70
2019-02-06T01:35:04.433Z,31.20
2019-02-06T01:36:04.419Z,30.60
2019-02-06T01:37:04.435Z,30.70
2019-02-06T01:38:04.393Z,30.90
2019-02-06T01:39:04.392Z,32.60
2019-02-06T01:40:04.373Z,31.30
2019-02-06T01:41:04.364Z,28.90
2019-02-06T01:42:04.365Z,30.60
2019-02-06T01:43:04.345Z,30.40
2019-02-06T01:44:04.354Z,29.40
2019-02-06T01:45:04.315Z,31.20
2019-02-06T01:46:04.322Z,32.10
2019-02-06T01:47:04.336Z,31.80
2019-02-06T01:48:04.283Z,30.60
2019-02-06T01:49:04.285Z,32.60
2019-02-06T01:50:04.264Z,33.10
2019-02-06T01:51:04.250Z,29.80
2019-02-06T01:52:04.253Z,32.70
2019-02-06T01:53:04.254Z,31.30
2019-02-06T01:54:04.217Z,31.60
2019-02-06T01:55:04.216Z,31.60
2019-02-06T01:56:04.198Z,31.90
2019-02-06T01:57:04.199Z,32.80
2019-02-06T01:58:04.196Z,31.10
2019-02-06T01:59:04.172Z,30.10
2019-02-06T02:00:04.154Z,32.10
2019-02-06T02:01:04.159Z,32.10
2019-02-06T02:02:04.131Z,32.10
2019-02-06T02:03:04.146Z,32.30
2019-02-06T02:04:04.127Z,30.10
2019-02-06T02:05:04.100Z,33.70
2019-02-06T02:06:04.110Z,32.30
2019-02-06T02:07:04.081Z,30.10
2019-02-06T02:08:04.065Z,30.60
2019-02-06T02:09:04.054Z,31.50
2019-02-06T02:10:04.044Z,31.60
2019-02-06T02:11:04.054Z,33.60
2019-02-06T02:12:04.025Z,33.60
2019-02-06T02:13:04.027Z,33.10
2019-02-06T02:14:04.026Z,31.80
2019-02-06T02:15:03.994Z,32.50
2019-02-06T02:16:03.979Z,32.60
2019-02-06T02:17:03.968Z,32.30
2019-02-06T02:18:03.963Z,31.90
2019-02-06T02:19:03.979Z,35.20
2019-02-06T02:20:03.937Z,34.10
2019-02-06T02:21:03.922Z,34.30
2019-02-06T02:22:03.913Z,35.40
2019-02-06T02:23:03.928Z,35.10
2019-02-06T02:24:03.891Z,33.60
2019-02-06T02:25:03.887Z,35.40
2019-02-06T02:26:03.868Z,36.00
2019-02-06T02:27:03.859Z,34.60
2019-02-06T02:28:03.867Z,33.90
2019-02-06T02:29:03.837Z,31.80
2019-02-06T02:30:03.831Z,34.10
2019-02-06T02:31:03.848Z,34.90
2019-02-06T02:32:03.828Z,33.60
2019-02-06T02:33:03.820Z,32.10
2019-02-06T02:34:03.785Z,33.60
2019-02-06T02:35:03.774Z,34.20
2019-02-06T02:36:14.865Z,35.40
2019-02-06T02:37:04.751Z,35.10
2019-02-06T02:38:03.764Z,34.90
2019-02-06T02:39:03.727Z,36.10
2019-02-06T02:40:03.720Z,36.00
2019-02-06T02:41:03.706Z,33.90
2019-02-06T02:42:03.694Z,33.70
2019-02-06T02:43:03.721Z,32.30
2019-02-06T02:44:03.681Z,33.10
2019-02-06T02:45:03.663Z,33.70
2019-02-06T02:46:03.662Z,34.40
2019-02-06T02:47:03.640Z,33.80
2019-02-06T02:48:03.650Z,33.70
2019-02-06T02:49:03.620Z,33.80
2019-02-06T02:50:03.611Z,34.80
2019-02-06T02:51:03.597Z,33.20
2019-02-06T02:52:03.717Z,33.90
2019-02-06T02:53:03.581Z,35.10
2019-02-06T02:54:03.563Z,31.40
2019-02-06T02:55:03.569Z,31.70
2019-02-06T02:56:03.551Z,31.20
2019-02-06T02:57:03.555Z,29.30
2019-02-06T02:58:03.519Z,31.40
2019-02-06T02:59:03.510Z,29.20
2019-02-06T03:00:03.497Z,28.40
2019-02-06T03:01:03.513Z,31.40
2019-02-06T03:02:03.489Z,33.00
2019-02-06T03:03:03.470Z,34.50
2019-02-06T03:04:03.494Z,31.60
2019-02-06T03:05:03.452Z,31.30
2019-02-06T03:06:03.436Z,33.70
2019-02-06T03:07:03.424Z,32.20
2019-02-06T03:08:03.421Z,31.40
2019-02-06T03:09:03.430Z,33.00
2019-02-06T03:10:03.388Z,31.70
2019-02-06T03:11:03.394Z,32.60
2019-02-06T03:12:03.368Z,31.80
2019-02-06T03:13:03.360Z,32.50
2019-02-06T03:14:03.354Z,32.20
2019-02-06T03:15:03.364Z,32.90
2019-02-06T03:16:03.327Z,31.90
2019-02-06T03:17:03.578Z,32.50
2019-02-06T03:18:03.335Z,31.90
2019-02-06T03:19:03.294Z,32.40
2019-02-06T03:20:03.286Z,32.40
2019-02-06T03:21:03.269Z,33.20
2019-02-06T03:22:03.258Z,30.70
2019-02-06T03:23:03.275Z,32.20
2019-02-06T03:24:03.239Z,32.40
2019-02-06T03:25:03.232Z,32.90
2019-02-06T03:26:03.217Z,30.50
2019-02-06T03:27:03.203Z,32.10
2019-02-06T03:28:03.198Z,33.30
2019-02-06T03:29:03.225Z,30.80
2019-02-06T03:30:03.177Z,31.40
2019-02-06T03:31:03.166Z,33.40
2019-02-06T03:32:03.159Z,29.10
2019-02-06T03:33:03.144Z,29.70
2019-02-06T03:34:05.026Z,32.10
2019-02-06T03:35:03.119Z,32.10
2019-02-06T03:36:03.133Z,32.60
2019-02-06T03:37:03.097Z,30.60
2019-02-06T03:38:03.094Z,31.00
2019-02-06T03:39:03.075Z,32.60
2019-02-06T03:40:03.092Z,32.90
2019-02-06T03:41:03.057Z,30.70
2019-02-06T03:42:03.040Z,32.30
2019-02-06T03:43:03.030Z,31.20
2019-02-06T03:44:03.030Z,32.30
2019-02-06T03:45:03.028Z,34.10
2019-02-06T03:46:03.027Z,33.80
2019-02-06T03:47:02.986Z,34.80
2019-02-06T03:48:02.976Z,34.90
2019-02-06T03:49:02.968Z,35.30
2019-02-06T03:50:02.969Z,33.80
2019-02-06T03:51:02.965Z,33.30
2019-02-06T03:52:02.936Z,34.80
2019-02-06T03:53:02.921Z,34.70
2019-02-06T03:54:02.912Z,33.60
2019-02-06T03:55:02.934Z,37.50
2019-02-06T03:56:02.893Z,33.30
2019-02-06T03:57:02.887Z,36.10
2019-02-06T03:58:02.868Z,39.50
2019-02-06T03:59:02.858Z,38.70
2019-02-06T04:00:02.872Z,38.60
2019-02-06T04:01:02.835Z,38.90
2019-02-06T04:02:02.823Z,38.90
2019-02-06T04:03:02.848Z,41.10
2019-02-06T04:04:02.802Z,40.00
2019-02-06T04:05:02.789Z,42.50
2019-02-06T04:06:02.782Z,39.60
2019-02-06T04:07:02.769Z,40.30
2019-02-06T04:08:02.785Z,40.90
2019-02-06T04:09:02.792Z,38.10
2019-02-06T04:10:02.741Z,41.60
2019-02-06T04:11:02.797Z,38.30
2019-02-06T04:12:02.718Z,44.20
2019-02-06T04:13:02.707Z,43.90
2019-02-06T04:14:02.720Z,40.10
2019-02-06T04:15:02.688Z,43.10
2019-02-06T04:16:02.672Z,43.40
2019-02-06T04:17:02.659Z,40.80
2019-02-06T04:18:02.656Z,43.50
2019-02-06T04:19:02.671Z,44.90
2019-02-06T04:20:02.626Z,45.00
2019-02-06T04:21:02.623Z,46.20
2019-02-06T04:22:02.604Z,46.90
2019-02-06T04:23:02.603Z,43.30
2019-02-06T04:24:02.609Z,46.60
2019-02-06T04:25:02.610Z,44.20
2019-02-06T04:26:02.563Z,43.90
2019-02-06T04:27:02.559Z,46.80
2019-02-06T04:28:02.545Z,45.10
2019-02-06T04:29:02.536Z,44.80
2019-02-06T04:30:02.532Z,44.10
2019-02-06T04:31:02.510Z,46.40
2019-02-06T04:32:02.500Z,45.50
2019-02-06T04:33:02.517Z,44.00
2019-02-06T04:34:02.472Z,44.50
2019-02-06T04:35:02.464Z,47.10
2019-02-06T04:36:02.478Z,46.20
2019-02-06T04:37:06.656Z,45.50
2019-02-06T04:38:02.480Z,44.30
2019-02-06T04:39:02.423Z,46.50
2019-02-06T04:40:02.432Z,42.70
2019-02-06T04:41:02.401Z,43.10
2019-02-06T04:42:02.392Z,43.20
2019-02-06T04:43:02.398Z,43.10
2019-02-06T04:44:02.367Z,41.30
2019-02-06T04:45:02.362Z,46.90
2019-02-06T04:46:02.384Z,45.50
2019-02-06T04:47:02.331Z,40.40
2019-02-06T04:48:02.324Z,41.50
2019-02-06T04:49:02.310Z,44.50
2019-02-06T04:50:02.299Z,43.10
2019-02-06T04:51:02.322Z,42.20
2019-02-06T04:52:02.282Z,41.20
2019-02-06T04:53:02.269Z,42.50
2019-02-06T04:54:02.256Z,41.30
2019-02-06T04:55:02.248Z,37.80
2019-02-06T04:56:02.264Z,38.40
2019-02-06T04:57:02.239Z,39.80
2019-02-06T04:58:02.211Z,39.50
2019-02-06T04:59:02.367Z,37.10
2019-02-06T05:00:02.230Z,39.50
2019-02-06T05:01:02.223Z,37.70
2019-02-06T05:02:02.342Z,37.00
2019-02-06T05:03:02.186Z,38.50
2019-02-06T05:04:02.152Z,40.10
2019-02-06T05:05:02.143Z,39.00
2019-02-06T05:06:02.140Z,40.10
2019-02-06T05:07:02.224Z,39.90
2019-02-06T05:08:02.137Z,41.20
2019-02-06T05:09:02.172Z,41.10
2019-02-06T05:10:02.089Z,41.50
2019-02-06T05:11:02.088Z,42.90
2019-02-06T05:12:02.061Z,44.00
2019-02-06T05:13:02.074Z,44.50
2019-02-06T05:14:02.064Z,41.50
2019-02-06T05:15:02.085Z,43.20
2019-02-06T05:16:02.015Z,44.40
2019-02-06T05:17:02.005Z,44.10
2019-02-06T05:18:01.994Z,42.90
2019-02-06T05:19:01.983Z,43.50
2019-02-06T05:20:02.002Z,42.10
2019-02-06T05:21:01.991Z,43.60
2019-02-06T05:22:01.950Z,43.10
2019-02-06T05:23:01.938Z,43.20
2019-02-06T05:24:01.927Z,42.10
2019-02-06T05:25:01.939Z,43.70
2019-02-06T05:26:01.929Z,44.70
2019-02-06T05:27:01.906Z,44.30
2019-02-06T05:28:01.887Z,42.00
2019-02-06T05:29:01.873Z,43.90
2019-02-06T05:30:01.915Z,43.10
2019-02-06T05:31:01.857Z,42.50
2019-02-06T05:32:01.988Z,40.40
2019-02-06T05:33:01.835Z,42.90
2019-02-06T05:34:01.817Z,43.70
2019-02-06T05:35:01.831Z,42.40
2019-02-06T05:36:01.799Z,42.50
2019-02-06T05:37:01.819Z,42.70
2019-02-06T05:38:01.774Z,41.10
2019-02-06T05:39:01.769Z,40.50
2019-02-06T05:40:01.759Z,40.30
2019-02-06T05:41:01.764Z,41.30
2019-02-06T05:42:01.734Z,40.60
2019-02-06T05:43:01.721Z,38.80
2019-02-06T05:44:01.708Z,39.30
2019-02-06T05:45:01.736Z,39.00
2019-02-06T05:46:01.719Z,38.60
2019-02-06T05:47:01.679Z,39.50
2019-02-06T05:48:01.681Z,38.70
2019-02-06T05:49:01.655Z,38.00
2019-02-06T05:50:01.661Z,37.60
2019-02-06T05:51:01.665Z,38.50
2019-02-06T05:52:01.626Z,38.80
2019-02-06T05:53:01.646Z,38.60
2019-02-06T05:54:01.599Z,38.50
2019-02-06T05:55:04.381Z,38.60
2019-02-06T05:56:01.584Z,38.30
2019-02-06T05:57:01.573Z,38.20
2019-02-06T05:58:01.604Z,39.50
2019-02-06T05:59:01.556Z,39.00
2019-02-06T06:00:01.633Z,38.60
2019-02-06T06:01:01.524Z,37.60
2019-02-06T06:02:01.513Z,37.10
2019-02-06T06:03:01.516Z,39.40
2019-02-06T06:04:01.492Z,39.10
2019-02-06T06:05:01.514Z,38.20
2019-02-06T06:06:01.478Z,38.40
2019-02-06T06:07:01.458Z,35.90
2019-02-06T06:08:01.473Z,37.30
2019-02-06T06:09:01.463Z,35.10
2019-02-06T06:10:01.433Z,35.90
2019-02-06T06:11:01.418Z,36.80
2019-02-06T06:12:01.441Z,36.70
2019-02-06T06:13:01.430Z,35.10
2019-02-06T06:14:01.380Z,36.60
2019-02-06T06:15:01.397Z,37.90
2019-02-06T06:16:01.361Z,35.10
2019-02-06T06:17:01.348Z,37.50
2019-02-06T06:18:01.339Z,35.10
2019-02-06T06:19:01.326Z,34.30
2019-02-06T06:20:01.359Z,35.70
2019-02-06T06:21:01.309Z,34.00
2019-02-06T06:22:01.323Z,35.80
2019-02-06T06:23:01.307Z,34.10
2019-02-06T06:24:01.304Z,34.30
2019-02-06T06:25:01.264Z,33.10
2019-02-06T06:26:01.264Z,32.10
2019-02-06T06:27:01.240Z,31.50
2019-02-06T06:28:01.280Z,32.30
2019-02-06T06:29:01.234Z,32.70
2019-02-06T06:30:01.208Z,32.60
2019-02-06T06:31:01.199Z,33.00
2019-02-06T06:32:01.223Z,33.60
2019-02-06T06:33:01.195Z,33.10
2019-02-06T06:34:01.166Z,33.60
2019-02-06T06:35:01.153Z,33.80
2019-02-06T06:36:01.165Z,31.60
2019-02-06T06:37:01.132Z,34.40
2019-02-06T06:38:02.557Z,35.60
2019-02-06T06:39:01.111Z,34.00
2019-02-06T06:40:01.096Z,32.40
2019-02-06T06:41:01.207Z,33.80
2019-02-06T06:42:01.080Z,34.20
2019-02-06T06:43:01.068Z,32.60
2019-02-06T06:44:01.168Z,35.20
2019-02-06T06:45:01.046Z,34.80
2019-02-06T06:46:01.081Z,36.80
2019-02-06T06:47:01.021Z,35.20
2019-02-06T06:48:01.009Z,35.10
2019-02-06T06:49:00.998Z,34.10
2019-02-06T06:50:00.998Z,34.20
2019-02-06T06:51:01.008Z,33.40
2019-02-06T06:52:03.862Z,35.70
2019-02-06T06:53:00.954Z,33.20
2019-02-06T06:54:00.946Z,33.80
2019-02-06T06:55:00.962Z,35.10
2019-02-06T06:56:00.934Z,35.00
2019-02-06T06:57:00.937Z,34.70
2019-02-06T06:58:00.969Z,34.30
2019-02-06T06:59:00.892Z,34.20
2019-02-06T07:00:00.881Z,33.20
2019-02-06T07:01:00.876Z,33.00
2019-02-06T07:02:00.886Z,32.30
2019-02-06T07:03:00.848Z,33.70
2019-02-06T07:04:00.837Z,32.50
2019-02-06T07:05:00.872Z,33.30
2019-02-06T07:06:00.839Z,32.90
2019-02-06T07:07:00.817Z,34.50
2019-02-06T07:08:09.292Z,32.90
2019-02-06T07:09:01.778Z,32.10
2019-02-06T07:10:00.768Z,32.70
2019-02-06T07:11:00.758Z,32.90
2019-02-06T07:12:00.746Z,32.10
2019-02-06T07:13:00.765Z,32.70
2019-02-06T07:14:00.735Z,32.50
2019-02-06T07:15:00.714Z,31.60
2019-02-06T07:16:00.706Z,32.00
2019-02-06T07:17:00.718Z,30.40
2019-02-06T07:18:00.694Z,31.80
2019-02-06T07:19:00.673Z,32.20
2019-02-06T07:20:00.675Z,31.30
2019-02-06T07:21:01.642Z,31.20
2019-02-06T07:22:00.654Z,32.10
2019-02-06T07:23:00.625Z,31.20
2019-02-06T07:24:00.639Z,28.90
2019-02-06T07:25:00.609Z,30.70
2019-02-06T07:26:00.637Z,29.80
2019-02-06T07:27:00.582Z,28.60
2019-02-06T07:28:00.598Z,29.60
2019-02-06T07:29:00.560Z,30.20
2019-02-06T07:30:00.574Z,29.20
2019-02-06T07:31:00.562Z,29.30
2019-02-06T07:32:00.566Z,29.20
2019-02-06T07:33:00.518Z,28.40
2019-02-06T07:34:00.514Z,28.20
2019-02-06T07:35:00.522Z,30.70
2019-02-06T07:36:00.484Z,27.60
2019-02-06T07:37:00.483Z,29.40
2019-02-06T07:38:00.476Z,28.10
2019-02-06T07:39:00.452Z,28.50
2019-02-06T07:40:00.473Z,28.70
2019-02-06T07:41:00.435Z,27.80
2019-02-06T07:42:00.420Z,27.20
2019-02-06T07:43:00.407Z,28.80
2019-02-06T07:44:00.427Z,29.00
2019-02-06T07:45:00.390Z,27.70
2019-02-06T07:46:00.375Z,29.00
2019-02-06T07:47:00.366Z,27.70
2019-02-06T07:48:00.352Z,27.10
2019-02-06T07:49:00.365Z,28.10
2019-02-06T07:50:00.471Z,27.50
2019-02-06T07:51:00.332Z,28.10
2019-02-06T07:52:00.313Z,26.60
2019-02-06T07:53:00.298Z,28.10
2019-02-06T07:54:00.315Z,28.70
2019-02-06T07:55:00.279Z,27.20
2019-02-06T07:56:00.291Z,26.20
2019-02-06T07:57:00.261Z,27.90
2019-02-06T07:58:00.245Z,26.60
2019-02-06T07:59:00.233Z,25.90
2019-02-06T08:00:00.336Z,27.00
2019-02-06T08:01:00.262Z,26.70
2019-02-06T08:02:00.202Z,27.20
2019-02-06T08:03:00.228Z,28.70
2019-02-06T08:04:00.182Z,28.00
2019-02-06T08:05:00.286Z,25.40
2019-02-06T08:06:00.156Z,26.60
2019-02-06T08:07:00.149Z,27.60
2019-02-06T08:08:00.160Z,26.90
2019-02-06T08:09:00.138Z,26.50
2019-02-06T08:10:00.177Z,26.60
2019-02-06T08:11:02.881Z,26.30
2019-02-06T08:12:00.090Z,27.80
2019-02-06T08:13:00.215Z,27.60
2019-02-06T08:14:00.098Z,27.50
2019-02-06T08:15:00.068Z,26.50
2019-02-06T08:16:00.049Z,26.70
2019-02-06T08:17:00.035Z,26.00
2019-02-06T08:18:00.056Z,26.30
2019-02-06T08:19:00.014Z,26.70
2019-02-06T08:20:00.009Z,25.90
2019-02-06T08:21:00.002Z,25.80
2019-02-06T08:21:59.983Z,25.90
2019-02-06T08:22:59.997Z,27.20
2019-02-06T08:23:59.962Z,25.40
2019-02-06T08:24:59.954Z,24.70
2019-02-06T08:25:59.940Z,26.30
2019-02-06T08:26:59.958Z,25.10
2019-02-06T08:27:59.922Z,24.10
2019-02-06T08:28:59.906Z,24.50
2019-02-06T08:29:59.894Z,24.80
2019-02-06T08:30:59.910Z,25.60
2019-02-06T08:31:59.898Z,24.80
2019-02-06T08:32:59.867Z,26.90
2019-02-06T08:33:59.850Z,24.40
2019-02-06T08:34:59.923Z,23.90
2019-02-06T08:35:59.827Z,24.20
2019-02-06T08:36:59.846Z,23.30
2019-02-06T08:37:59.805Z,23.60
2019-02-06T08:38:59.813Z,24.70
2019-02-06T08:39:59.784Z,23.70
2019-02-06T08:40:59.776Z,23.60
2019-02-06T08:41:59.792Z,22.90
2019-02-06T08:42:59.752Z,23.00
2019-02-06T08:44:01.850Z,23.70
2019-02-06T08:44:59.735Z,23.20
2019-02-06T08:45:59.717Z,22.90
2019-02-06T08:46:59.729Z,23.70
2019-02-06T08:47:59.698Z,22.60
2019-02-06T08:48:59.683Z,23.80
2019-02-06T08:49:59.673Z,23.80
2019-02-06T08:50:59.669Z,22.20
2019-02-06T08:51:59.676Z,22.70
2019-02-06T08:52:59.642Z,22.60
2019-02-06T08:53:59.655Z,23.10
2019-02-06T08:54:59.620Z,23.10
2019-02-06T08:55:59.606Z,22.10
2019-02-06T08:56:59.632Z,22.60
2019-02-06T08:57:59.614Z,22.60
2019-02-06T08:58:59.573Z,23.00
2019-02-06T08:59:59.564Z,22.40
2019-02-06T09:00:59.551Z,22.70
2019-02-06T09:01:59.546Z,24.10
2019-02-06T09:02:59.576Z,23.60
2019-02-06T09:03:59.523Z,22.00
2019-02-06T09:04:59.554Z,22.10
2019-02-06T09:05:59.495Z,21.40
2019-02-06T09:06:59.486Z,22.60
2019-02-06T09:07:59.502Z,22.60
2019-02-06T09:09:00.177Z,23.00
2019-02-06T09:09:59.455Z,22.60
2019-02-06T09:10:59.441Z,22.10
2019-02-06T09:11:59.430Z,23.70
2019-02-06T09:12:59.452Z,23.20
2019-02-06T09:13:59.408Z,23.60
2019-02-06T09:14:59.427Z,23.10
2019-02-06T09:15:59.403Z,24.20
2019-02-06T09:16:59.375Z,23.80
2019-02-06T09:17:59.379Z,22.50
2019-02-06T09:18:59.353Z,22.60
2019-02-06T09:19:59.367Z,21.40
2019-02-06T09:20:59.355Z,22.30
2019-02-06T09:21:59.328Z,23.20
2019-02-06T09:22:59.331Z,22.90
2019-02-06T09:23:59.299Z,22.00
2019-02-06T09:24:59.286Z,21.60
2019-02-06T09:25:59.300Z,22.00
2019-02-06T09:26:59.267Z,21.70
2019-02-06T09:27:59.295Z,22.20
2019-02-06T09:28:59.245Z,21.70
2019-02-06T09:29:59.255Z,22.00
2019-02-06T09:30:59.226Z,21.30
2019-02-06T09:31:59.514Z,22.40
2019-02-06T09:32:59.198Z,22.30
2019-02-06T09:33:59.191Z,22.30
2019-02-06T09:34:59.208Z,23.30
2019-02-06T09:35:59.199Z,22.30
2019-02-06T09:36:59.169Z,23.20
2019-02-06T09:37:59.143Z,21.90
2019-02-06T09:39:10.938Z,22.30
2019-02-06T09:40:00.351Z,22.50
2019-02-06T09:40:59.140Z,22.80
2019-02-06T09:41:59.102Z,21.70
2019-02-06T09:42:59.109Z,22.50
2019-02-06T09:43:59.076Z,22.30
2019-02-06T09:44:59.099Z,22.80
2019-02-06T09:45:59.054Z,22.50
2019-02-06T09:46:59.049Z,22.00
2019-02-06T09:47:59.055Z,22.30
2019-02-06T09:48:59.021Z,22.40
2019-02-06T09:49:59.011Z,22.00
2019-02-06T09:50:59.024Z,22.40
2019-02-06T09:51:58.988Z,22.60
2019-02-06T09:52:58.999Z,22.00
2019-02-06T09:53:59.011Z,21.90
2019-02-06T09:54:59.070Z,21.50
2019-02-06T09:55:58.944Z,22.50
2019-02-06T09:56:58.933Z,21.60
2019-02-06T09:57:58.923Z,23.30
2019-02-06T09:58:58.922Z,22.40
2019-02-06T09:59:58.923Z,23.00
2019-02-06T10:00:58.889Z,21.70
2019-02-06T10:01:58.902Z,21.10
2019-02-06T10:02:58.867Z,21.80
2019-02-06T10:03:58.890Z,22.40
2019-02-06T10:04:58.855Z,21.60
2019-02-06T10:05:58.834Z,22.30
2019-02-06T10:06:58.823Z,22.20
2019-02-06T10:07:58.813Z,21.60
2019-02-06T10:08:58.822Z,21.40
2019-02-06T10:09:58.790Z,21.30
2019-02-06T10:10:58.817Z,21.30
2019-02-06T10:11:58.771Z,21.10
2019-02-06T10:12:58.761Z,21.20
2019-02-06T10:13:58.745Z,20.90
2019-02-06T10:14:58.779Z,20.10
2019-02-06T10:15:58.726Z,21.00
2019-02-06T10:16:58.719Z,21.10
2019-02-06T10:17:58.702Z,22.30
2019-02-06T10:18:58.691Z,21.10
2019-02-06T10:19:58.706Z,21.90
2019-02-06T10:20:58.671Z,21.30
2019-02-06T10:21:58.662Z,21.50
2019-02-06T10:22:58.659Z,20.30
2019-02-06T10:23:58.670Z,20.80
2019-02-06T10:24:58.624Z,20.40
2019-02-06T10:25:58.638Z,20.70
2019-02-06T10:26:58.607Z,21.20
2019-02-06T10:27:58.614Z,20.40
2019-02-06T10:28:58.587Z,20.80
2019-02-06T10:29:58.569Z,20.80
2019-02-06T10:30:58.558Z,20.80
2019-02-06T10:31:58.576Z,20.50
2019-02-06T10:32:58.568Z,20.80
2019-02-06T10:33:58.552Z,20.30
2019-02-06T10:34:58.518Z,20.30
2019-02-06T10:35:58.540Z,20.00
2019-02-06T10:36:58.495Z,19.80
2019-02-06T10:37:58.487Z,21.10
2019-02-06T10:38:58.475Z,20.70
2019-02-06T10:39:58.846Z,20.10
2019-02-06T10:40:58.482Z,20.80
2019-02-06T10:41:58.439Z,20.30
2019-02-06T10:42:58.431Z,20.60
2019-02-06T10:43:58.419Z,20.20
2019-02-06T10:44:58.409Z,19.90
2019-02-06T10:45:58.415Z,20.30
2019-02-06T10:46:58.385Z,20.50
2019-02-06T10:47:58.370Z,20.80
2019-02-06T10:48:58.383Z,20.90
2019-02-06T10:49:58.351Z,20.40
2019-02-06T10:50:58.603Z,19.30
2019-02-06T10:51:58.326Z,20.90
2019-02-06T10:52:58.350Z,19.80
2019-02-06T10:53:58.308Z,19.80
2019-02-06T10:54:58.298Z,19.50
2019-02-06T10:55:58.288Z,20.50
2019-02-06T10:56:58.278Z,20.60
2019-02-06T10:57:58.278Z,19.90
2019-02-06T10:58:58.257Z,20.50
2019-02-06T10:59:58.240Z,20.50
2019-02-06T11:00:58.257Z,20.10
2019-02-06T11:01:58.217Z,20.50
2019-02-06T11:02:58.237Z,20.90
2019-02-06T11:03:58.194Z,21.00
2019-02-06T11:04:58.185Z,19.60
2019-02-06T11:05:58.175Z,20.50
2019-02-06T11:06:58.165Z,20.20
2019-02-06T11:07:58.173Z,21.30
2019-02-06T11:08:58.149Z,20.10
2019-02-06T11:09:58.129Z,21.10
2019-02-06T11:10:58.146Z,20.00
2019-02-06T11:11:58.135Z,20.60
2019-02-06T11:12:58.099Z,20.70
2019-02-06T11:13:58.090Z,19.20
2019-02-06T11:14:58.114Z,18.60
2019-02-06T11:15:58.091Z,19.40
2019-02-06T11:16:58.051Z,19.50
2019-02-06T11:17:58.040Z,19.90
2019-02-06T11:18:58.029Z,20.10
2019-02-06T11:19:58.022Z,19.70
2019-02-06T11:20:58.050Z,19.80
2019-02-06T11:21:57.997Z,19.80
2019-02-06T11:22:57.988Z,20.30
2019-02-06T11:23:57.973Z,19.80
2019-02-06T11:24:57.968Z,20.10
2019-02-06T11:25:57.976Z,20.60
2019-02-06T11:26:57.946Z,20.20
2019-02-06T11:27:57.936Z,20.30
2019-02-06T11:28:57.917Z,19.40
2019-02-06T11:29:57.908Z,20.00
2019-02-06T11:30:57.921Z,20.00
2019-02-06T11:31:57.885Z,20.30
2019-02-06T11:32:57.885Z,20.30
2019-02-06T11:33:57.881Z,19.60
2019-02-06T11:34:57.878Z,19.40
2019-02-06T11:35:57.841Z,20.20
2019-02-06T11:36:57.833Z,20.20
2019-02-06T11:37:57.818Z,19.10
2019-02-06T11:38:57.843Z,19.30
2019-02-06T11:39:58.374Z,20.00
2019-02-06T11:40:57.788Z,19.70
2019-02-06T11:41:57.808Z,20.20
2019-02-06T11:42:57.763Z,20.30
2019-02-06T11:43:57.758Z,20.50
2019-02-06T11:44:57.740Z,20.00
2019-02-06T11:45:57.739Z,19.50
2019-02-06T11:46:57.739Z,19.40
2019-02-06T11:47:57.714Z,20.50
2019-02-06T11:48:57.699Z,21.10
2019-02-06T11:49:57.684Z,19.70
2019-02-06T11:50:57.675Z,19.70
2019-02-06T11:51:57.705Z,19.10
2019-02-06T11:52:57.650Z,19.70
2019-02-06T11:53:57.642Z,19.80
2019-02-06T11:54:57.628Z,19.10
2019-02-06T11:55:57.622Z,20.00
2019-02-06T11:56:57.735Z,19.20
2019-02-06T11:57:57.597Z,19.40
2019-02-06T11:58:57.591Z,20.50
2019-02-06T11:59:57.575Z,20.70
2019-02-06T12:00:57.565Z,19.30
2019-02-06T12:01:57.566Z,19.90
2019-02-06T12:02:57.554Z,20.20
2019-02-06T12:03:57.528Z,20.80
2019-02-06T12:04:57.523Z,19.40
2019-02-06T12:05:57.514Z,19.70
2019-02-06T12:06:57.531Z,19.80
2019-02-06T12:07:57.489Z,18.90
2019-02-06T12:08:57.473Z,19.50
2019-02-06T12:10:09.006Z,19.00
2019-02-06T12:10:58.483Z,19.00
2019-02-06T12:11:57.439Z,18.90
2019-02-06T12:12:57.428Z,19.30
2019-02-06T12:13:57.421Z,19.60
2019-02-06T12:14:57.444Z,19.90
2019-02-06T12:15:57.395Z,20.00
2019-02-06T12:16:57.390Z,19.30
2019-02-06T12:17:57.375Z,19.50
2019-02-06T12:18:57.363Z,18.90
2019-02-06T12:19:57.382Z,19.10
2019-02-06T12:20:57.339Z,19.50
2019-02-06T12:21:57.359Z,18.80
2019-02-06T12:22:57.323Z,19.40
2019-02-06T12:23:57.311Z,18.60
2019-02-06T12:24:57.326Z,18.70
2019-02-06T12:25:57.287Z,18.70
2019-02-06T12:26:57.280Z,17.80
2019-02-06T12:27:57.270Z,18.20
2019-02-06T12:28:57.278Z,18.70
2019-02-06T12:29:57.240Z,19.20
2019-02-06T12:30:57.474Z,18.50
2019-02-06T12:31:57.293Z,18.40
2019-02-06T12:32:57.208Z,18.40
2019-02-06T12:33:57.226Z,18.40
2019-02-06T12:34:57.296Z,18.60
2019-02-06T12:35:57.180Z,17.40
2019-02-06T12:36:57.167Z,18.60
2019-02-06T12:37:57.163Z,17.50
2019-02-06T12:38:57.484Z,18.50
2019-02-06T12:39:57.161Z,17.40
2019-02-06T12:40:57.149Z,17.40
2019-02-06T12:41:57.152Z,18.30
2019-02-06T12:42:57.099Z,17.50
2019-02-06T12:43:57.103Z,17.90
2019-02-06T12:44:59.134Z,18.30
2019-02-06T12:45:57.064Z,17.30
2019-02-06T12:46:57.085Z,17.90
2019-02-06T12:47:57.042Z,17.70
2019-02-06T12:48:57.031Z,18.00
2019-02-06T12:49:57.044Z,18.10
2019-02-06T12:50:57.035Z,19.00
2019-02-06T12:51:56.996Z,17.90